createdAt,value
2023-03-21T00:02:29.014Z,30.08
2023-03-21T00:05:16.048Z,31.27
2023-03-21T00:08:02.889Z,29.20
2023-03-21T00:10:47.967Z,27.35
2023-03-21T00:13:33.666Z,29.52
2023-03-21T00:19:27.573Z,29.38
2023-03-21T00:22:12.378Z,29.83
2023-03-21T00:24:57.812Z,30.00
2023-03-21T00:28:01.156Z,26.67
2023-03-21T00:30:48.389Z,29.73
2023-03-21T00:33:34.586Z,25.33
2023-03-21T00:36:19.925Z,28.30
2023-03-21T00:39:06.104Z,31.63
2023-03-21T00:41:51.413Z,26.17
2023-03-21T00:44:36.781Z,29.42
2023-03-21T00:47:23.066Z,28.65
2023-03-21T00:50:11.753Z,29.67
2023-03-21T00:52:56.836Z,28.65
2023-03-21T00:55:41.848Z,26.38
2023-03-21T00:58:27.102Z,28.63
2023-03-21T01:01:11.893Z,27.33
2023-03-21T01:04:03.953Z,25.75
2023-03-21T01:06:49.252Z,31.92
2023-03-21T01:09:33.880Z,28.23
2023-03-21T01:12:18.724Z,27.90
2023-03-21T01:15:03.661Z,29.80
2023-03-21T01:17:49.494Z,31.38
2023-03-21T01:20:34.332Z,28.02
2023-03-21T01:23:19.596Z,27.67
2023-03-21T01:26:05.312Z,25.20
2023-03-21T01:28:50.581Z,28.67
2023-03-21T01:31:35.907Z,25.15
2023-03-21T01:34:21.612Z,24.55
2023-03-21T01:37:06.790Z,24.30
2023-03-21T01:39:53.244Z,27.95
2023-03-21T01:42:39.474Z,26.58
2023-03-21T01:45:58.582Z,25.70
2023-03-21T01:48:44.630Z,24.20
2023-03-21T01:51:33.896Z,32.05
2023-03-21T01:54:25.742Z,28.70
2023-03-21T01:57:16.516Z,26.33
2023-03-21T02:00:13.010Z,27.23
2023-03-21T02:03:11.697Z,28.33
2023-03-21T02:06:17.145Z,28.70
2023-03-21T02:09:08.581Z,27.15
2023-03-21T02:11:54.882Z,26.92
2023-03-21T02:14:39.742Z,28.98
2023-03-21T02:17:46.881Z,29.20
2023-03-21T02:20:58.852Z,27.60
2023-03-21T02:27:15.977Z,28.67
2023-03-21T02:30:45.543Z,29.33
2023-03-21T02:33:57.935Z,27.45
2023-03-21T02:36:48.459Z,28.25
2023-03-21T02:39:56.052Z,28.80
2023-03-21T02:43:00.954Z,25.58
2023-03-21T02:45:54.706Z,25.63
2023-03-21T02:48:50.927Z,28.05
2023-03-21T02:51:39.266Z,24.75
2023-03-21T02:54:41.917Z,22.13
2023-03-21T02:57:42.228Z,31.20
2023-03-21T03:00:31.209Z,24.38
2023-03-21T03:03:27.964Z,26.23
2023-03-21T03:06:21.154Z,26.88
2023-03-21T03:09:39.675Z,26.77
2023-03-21T03:12:34.524Z,25.23
2023-03-21T03:15:34.440Z,23.40
2023-03-21T03:18:31.555Z,27.95
2023-03-21T03:21:37.880Z,24.67
2023-03-21T03:24:47.424Z,25.67
2023-03-21T03:27:37.481Z,24.83
2023-03-21T03:30:32.280Z,26.30
2023-03-21T03:33:27.077Z,30.60
2023-03-21T03:36:30.527Z,25.85
2023-03-21T03:39:18.008Z,29.20
2023-03-21T03:42:27.156Z,24.17
2023-03-21T03:45:13.959Z,23.60
2023-03-21T03:48:08.018Z,26.38
2023-03-21T03:51:16.687Z,28.60
2023-03-21T03:54:10.868Z,24.42
2023-03-21T03:56:57.546Z,28.58
2023-03-21T03:59:44.842Z,25.13
2023-03-21T04:02:32.441Z,29.30
2023-03-21T04:05:21.032Z,26.48
2023-03-21T04:08:07.081Z,30.67
2023-03-21T04:10:52.340Z,28.98
2023-03-21T04:13:37.733Z,27.35
2023-03-21T04:16:23.395Z,28.52
2023-03-21T04:19:09.116Z,25.92
2023-03-21T04:21:54.198Z,24.17
2023-03-21T04:24:40.405Z,31.02
2023-03-21T04:27:25.278Z,25.92
2023-03-21T04:30:12.537Z,29.98
2023-03-21T04:32:57.328Z,24.20
2023-03-21T04:35:42.538Z,26.13
2023-03-21T04:38:30.581Z,27.42
2023-03-21T04:41:15.320Z,25.02
2023-03-21T04:44:01.753Z,26.48
2023-03-21T04:46:46.496Z,28.48
2023-03-21T04:49:31.820Z,28.08
2023-03-21T04:52:17.133Z,27.15
2023-03-21T04:55:02.310Z,29.60
2023-03-21T04:57:48.008Z,25.85
2023-03-21T05:00:37.773Z,31.10
2023-03-21T05:03:23.720Z,25.33
2023-03-21T05:06:10.582Z,23.10
2023-03-21T05:08:59.922Z,27.13
2023-03-21T05:11:44.721Z,25.52
2023-03-21T05:14:29.930Z,27.35
2023-03-21T05:17:23.036Z,26.55
2023-03-21T05:20:12.330Z,26.83
2023-03-21T05:22:57.302Z,29.73
2023-03-21T05:25:42.079Z,26.25
2023-03-21T05:28:31.434Z,25.65
2023-03-21T05:31:18.229Z,26.20
2023-03-21T05:34:03.442Z,24.83
2023-03-21T05:36:48.426Z,29.25
2023-03-21T05:39:33.116Z,26.48
2023-03-21T05:42:19.037Z,25.50
2023-03-21T05:45:04.579Z,28.38
2023-03-21T05:47:50.041Z,24.13
2023-03-21T05:50:34.965Z,25.88
2023-03-21T05:53:21.777Z,26.02
2023-03-21T05:56:08.824Z,21.38
2023-03-21T05:58:54.569Z,24.23
2023-03-21T06:01:39.543Z,24.45
2023-03-21T06:04:24.750Z,23.73
2023-03-21T06:07:10.693Z,25.45
2023-03-21T06:09:55.559Z,23.15
2023-03-21T06:12:40.307Z,23.58
2023-03-21T06:15:26.646Z,25.30
2023-03-21T06:18:11.767Z,21.02
2023-03-21T06:20:57.407Z,21.08
2023-03-21T06:23:43.057Z,21.92
2023-03-21T06:26:28.762Z,26.45
2023-03-21T06:29:14.311Z,19.88
2023-03-21T06:31:59.472Z,23.75
2023-03-21T06:34:45.006Z,28.23
2023-03-21T06:37:29.958Z,22.63
2023-03-21T06:40:15.315Z,23.05
2023-03-21T06:43:00.201Z,25.20
2023-03-21T06:45:45.648Z,25.48
2023-03-21T06:48:31.972Z,22.42
2023-03-21T06:51:17.158Z,23.65
2023-03-21T06:54:02.047Z,19.70
2023-03-21T06:56:48.003Z,25.50
2023-03-21T06:59:32.841Z,18.23
2023-03-21T07:02:17.889Z,20.02
2023-03-21T07:05:04.341Z,20.02
2023-03-21T07:07:49.666Z,21.27
2023-03-21T07:10:34.998Z,24.45
2023-03-21T07:13:19.911Z,19.85
2023-03-21T07:16:06.174Z,17.92
2023-03-21T07:18:51.125Z,21.33
2023-03-21T07:21:36.334Z,19.35
2023-03-21T07:24:21.243Z,21.42
2023-03-21T07:27:06.568Z,21.38
2023-03-21T07:29:51.446Z,19.80
2023-03-21T07:32:37.814Z,19.00
2023-03-21T07:35:22.806Z,21.13
2023-03-21T07:38:08.096Z,15.45
2023-03-21T07:40:53.357Z,18.20
2023-03-21T07:43:39.712Z,20.80
2023-03-21T07:46:25.064Z,17.90
2023-03-21T07:49:10.270Z,16.38
2023-03-21T07:51:55.253Z,15.35
2023-03-21T07:54:40.261Z,16.08
2023-03-21T07:57:25.542Z,22.55
2023-03-21T08:00:12.512Z,16.85
2023-03-21T08:02:59.832Z,17.85
2023-03-21T08:05:45.396Z,17.40
2023-03-21T08:08:31.710Z,15.95
2023-03-21T08:11:18.008Z,16.95
2023-03-21T08:14:04.271Z,19.58
2023-03-21T08:16:49.333Z,17.00
2023-03-21T08:19:35.974Z,23.23
2023-03-21T08:22:21.575Z,16.92
2023-03-21T08:25:08.378Z,17.67
2023-03-21T08:27:53.897Z,17.63
2023-03-21T08:30:39.020Z,17.83
2023-03-21T08:33:27.033Z,18.40
2023-03-21T08:36:12.313Z,17.35
2023-03-21T08:39:05.464Z,17.38
2023-03-21T08:41:50.665Z,18.20
2023-03-21T08:44:36.355Z,16.85
2023-03-21T08:47:22.038Z,17.23
2023-03-21T08:50:09.276Z,19.00
2023-03-21T08:52:54.695Z,21.48
2023-03-21T08:55:39.693Z,19.27
2023-03-21T08:58:25.926Z,19.00
2023-03-21T09:01:15.441Z,18.00
2023-03-21T09:04:00.858Z,19.48
2023-03-21T09:06:47.635Z,18.90
2023-03-21T09:09:32.497Z,15.27
2023-03-21T09:12:17.651Z,15.68
2023-03-21T09:15:03.566Z,19.77
2023-03-21T09:17:52.314Z,16.15
2023-03-21T09:20:38.302Z,18.52
2023-03-21T09:23:24.282Z,17.92
2023-03-21T09:26:09.618Z,14.00
2023-03-21T09:28:55.959Z,14.52
2023-03-21T09:31:41.235Z,18.05
2023-03-21T09:34:26.684Z,16.75
2023-03-21T09:37:13.227Z,19.88
2023-03-21T09:39:58.303Z,15.95
2023-03-21T09:43:32.292Z,14.90
2023-03-21T09:46:42.743Z,16.40
2023-03-21T09:49:36.249Z,16.33
2023-03-21T09:52:29.707Z,21.65
2023-03-21T09:55:21.694Z,17.95
2023-03-21T09:58:13.751Z,16.23
2023-03-21T10:01:10.698Z,13.07
2023-03-21T10:04:01.124Z,14.90
2023-03-21T10:06:55.331Z,17.33
2023-03-21T10:09:44.598Z,12.80
2023-03-21T10:12:32.638Z,19.67
2023-03-21T10:15:20.793Z,16.95
2023-03-21T10:18:08.594Z,17.08
2023-03-21T10:20:55.653Z,13.90
2023-03-21T10:23:40.438Z,19.73
2023-03-21T10:26:29.285Z,21.20
2023-03-21T10:29:16.637Z,16.60
2023-03-21T10:32:02.949Z,20.05
2023-03-21T10:40:29.837Z,16.42
2023-03-21T10:43:27.306Z,16.17
2023-03-21T10:46:18.845Z,15.30
2023-03-21T10:49:07.652Z,15.00
2023-03-21T10:51:56.386Z,22.25
2023-03-21T10:54:42.466Z,14.55
2023-03-21T10:57:27.873Z,21.40
2023-03-21T11:00:22.076Z,19.25
2023-03-21T11:03:20.630Z,16.13
2023-03-21T11:06:22.176Z,19.42
2023-03-21T11:09:20.622Z,16.45
2023-03-21T11:12:11.784Z,16.92
2023-03-21T11:14:57.900Z,21.02
2023-03-21T11:17:45.458Z,24.23
2023-03-21T11:20:31.468Z,17.33
2023-03-21T11:23:19.449Z,13.00
2023-03-21T11:26:11.536Z,15.95
2023-03-21T11:28:57.348Z,17.50
2023-03-21T11:31:42.235Z,16.65
2023-03-21T11:34:47.336Z,14.30
2023-03-21T11:37:37.800Z,21.10
2023-03-21T11:40:31.741Z,17.60
2023-03-21T11:43:20.251Z,17.80
2023-03-21T11:46:13.365Z,13.82
2023-03-21T11:49:00.337Z,14.80
2023-03-21T11:51:53.959Z,16.08
2023-03-21T11:57:47.600Z,14.27
2023-03-21T12:00:43.133Z,13.95
2023-03-21T12:03:48.766Z,15.88
2023-03-21T12:06:38.017Z,16.13
2023-03-21T12:09:34.841Z,15.98
2023-03-21T12:12:47.398Z,12.27
2023-03-21T12:15:38.762Z,14.38
2023-03-21T12:18:49.644Z,11.98
2023-03-21T12:22:00.489Z,12.43
2023-03-21T12:24:50.421Z,10.10
2023-03-21T12:28:02.815Z,14.68
2023-03-21T12:30:59.995Z,9.90
2023-03-21T12:33:57.046Z,7.55
2023-03-21T12:37:07.074Z,8.05
2023-03-21T12:39:58.251Z,11.88
2023-03-21T12:43:26.123Z,9.30
2023-03-21T12:46:39.319Z,10.02
2023-03-21T12:49:42.892Z,13.13
2023-03-21T12:52:40.291Z,12.10
2023-03-21T12:55:29.929Z,10.27
2023-03-21T12:58:19.637Z,10.30
2023-03-21T13:01:06.655Z,11.30
2023-03-21T13:04:31.622Z,13.52
2023-03-21T13:07:20.302Z,11.68
2023-03-21T13:10:15.682Z,12.13
2023-03-21T13:13:10.921Z,12.35
2023-03-21T13:16:16.351Z,10.80
2023-03-21T13:19:11.278Z,14.35
2023-03-21T13:22:18.227Z,15.23
2023-03-21T13:25:21.954Z,16.48
2023-03-21T13:28:07.279Z,13.25
2023-03-21T13:30:52.570Z,14.38
2023-03-21T13:33:44.945Z,13.25
2023-03-21T13:36:32.416Z,16.42
2023-03-21T13:39:20.709Z,14.65
2023-03-21T13:42:18.301Z,17.27
2023-03-21T13:45:11.698Z,15.65
2023-03-21T13:48:01.126Z,17.65
2023-03-21T13:51:00.859Z,16.05
2023-03-21T13:54:08.550Z,14.32
2023-03-21T13:56:59.953Z,15.10
2023-03-21T13:59:46.164Z,20.20
2023-03-21T14:02:38.382Z,19.48
2023-03-21T14:05:26.367Z,16.77
2023-03-21T14:08:27.904Z,20.95
2023-03-21T14:11:19.175Z,21.20
2023-03-21T14:14:05.123Z,18.92
2023-03-21T14:16:53.471Z,14.30
2023-03-21T14:19:39.110Z,19.38
2023-03-21T14:22:24.173Z,16.73
2023-03-21T14:25:14.577Z,17.25
2023-03-21T14:28:04.255Z,19.17
2023-03-21T14:30:55.919Z,18.77
2023-03-21T14:33:47.751Z,17.45
2023-03-21T14:36:43.136Z,17.13
2023-03-21T14:39:33.652Z,18.60
2023-03-21T14:42:20.742Z,16.95
2023-03-21T14:48:08.508Z,16.77
2023-03-21T14:50:56.219Z,17.08
2023-03-21T14:56:29.121Z,19.10
2023-03-21T14:59:18.748Z,17.65
2023-03-21T15:02:15.496Z,19.10
2023-03-21T15:05:10.590Z,20.02
2023-03-21T15:08:01.870Z,22.67
2023-03-21T15:11:09.665Z,15.88
2023-03-21T15:13:55.673Z,16.52
2023-03-21T15:16:41.297Z,19.10
2023-03-21T15:19:35.478Z,22.58
2023-03-21T15:22:37.244Z,18.60
2023-03-21T15:25:28.766Z,20.83
2023-03-21T15:28:14.908Z,18.15
2023-03-21T15:31:00.195Z,21.10
2023-03-21T15:33:51.084Z,19.90
2023-03-21T15:36:48.466Z,16.38
2023-03-21T15:39:36.137Z,19.48
2023-03-21T15:45:32.183Z,22.08
2023-03-21T15:48:23.138Z,20.17
2023-03-21T15:51:21.370Z,21.58
2023-03-21T15:54:15.266Z,21.08
2023-03-21T15:57:09.662Z,21.40
2023-03-21T16:00:03.121Z,24.52
2023-03-21T16:02:54.723Z,21.08
2023-03-21T16:05:42.609Z,20.50
2023-03-21T16:08:32.418Z,20.75
2023-03-21T16:11:29.837Z,18.60
2023-03-21T16:14:14.881Z,18.08
2023-03-21T16:17:00.018Z,16.02
2023-03-21T16:19:45.136Z,15.45
2023-03-21T16:22:35.162Z,17.13
2023-03-21T16:25:21.878Z,19.25
2023-03-21T16:28:16.378Z,16.58
2023-03-21T16:31:01.492Z,21.88
2023-03-21T16:33:47.377Z,15.77
2023-03-21T16:36:37.102Z,25.92
2023-03-21T16:39:25.231Z,16.63
2023-03-21T16:42:12.791Z,20.55
2023-03-21T16:44:58.935Z,18.73
2023-03-21T16:47:44.728Z,15.55
2023-03-21T16:50:34.619Z,17.15
2023-03-21T16:53:19.779Z,15.82
2023-03-21T16:56:07.681Z,17.42
2023-03-21T16:58:56.060Z,17.83
2023-03-21T17:01:45.986Z,18.55
2023-03-21T17:04:31.557Z,17.23
2023-03-21T17:07:17.973Z,17.00
2023-03-21T17:10:03.488Z,17.85
2023-03-21T17:12:49.119Z,12.80
2023-03-21T17:15:34.358Z,15.75
2023-03-21T17:18:19.340Z,15.10
2023-03-21T17:21:15.961Z,15.93
2023-03-21T17:24:00.882Z,15.73
2023-03-21T17:26:45.788Z,14.88
2023-03-21T17:29:31.324Z,16.42
2023-03-21T17:32:17.991Z,14.85
2023-03-21T17:35:04.231Z,19.17
2023-03-21T17:37:53.776Z,15.55
2023-03-21T17:40:39.197Z,15.30
2023-03-21T17:43:24.317Z,19.13
2023-03-21T17:46:25.134Z,17.73
2023-03-21T17:49:14.237Z,14.60
2023-03-21T17:51:59.549Z,20.13
2023-03-21T17:54:44.402Z,14.70
2023-03-21T17:57:29.306Z,16.67
2023-03-21T18:00:18.324Z,14.65
2023-03-21T18:03:03.566Z,15.68
2023-03-21T18:05:49.723Z,21.35
2023-03-21T18:08:35.267Z,16.95
2023-03-21T18:11:22.868Z,16.55
2023-03-21T18:17:03.377Z,19.23
2023-03-21T18:19:48.839Z,21.20
2023-03-21T18:22:34.171Z,19.40
2023-03-21T18:25:19.163Z,17.15
2023-03-21T18:28:11.539Z,15.70
2023-03-21T18:31:09.576Z,15.77
2023-03-21T18:33:56.092Z,17.48
2023-03-21T18:36:42.736Z,20.58
2023-03-21T18:39:28.169Z,16.60
2023-03-21T18:42:17.925Z,16.80
2023-03-21T18:45:13.910Z,16.70
2023-03-21T18:47:59.148Z,15.18
2023-03-21T18:50:44.133Z,15.88
2023-03-21T18:53:34.858Z,14.90
2023-03-21T18:56:58.028Z,17.90
2023-03-21T18:59:26.248Z,15.35
2023-03-21T19:02:15.288Z,12.07
2023-03-21T19:05:01.590Z,14.32
2023-03-21T19:07:47.859Z,10.88
2023-03-21T19:10:34.881Z,12.02
2023-03-21T19:16:11.240Z,11.88
2023-03-21T19:18:57.655Z,11.18
2023-03-21T19:21:43.406Z,11.57
2023-03-21T19:24:29.138Z,11.27
2023-03-21T19:27:17.195Z,10.43
2023-03-21T19:30:13.893Z,14.07
2023-03-21T19:33:01.535Z,14.48
2023-03-21T19:35:48.069Z,13.00
2023-03-21T19:38:33.355Z,11.02
2023-03-21T19:41:22.551Z,14.50
2023-03-21T19:44:08.042Z,11.48
2023-03-21T19:46:54.674Z,12.40
2023-03-21T19:50:27.727Z,12.73
2023-03-21T19:52:49.872Z,12.93
2023-03-21T19:55:36.536Z,12.95
2023-03-21T19:58:22.791Z,13.45
2023-03-21T20:01:12.388Z,13.23
2023-03-21T20:03:59.460Z,11.63
2023-03-21T20:06:53.426Z,18.65
2023-03-21T20:09:51.457Z,13.27
2023-03-21T20:12:37.795Z,14.13
2023-03-21T20:15:26.719Z,11.77
2023-03-21T20:18:14.234Z,13.35
2023-03-21T20:21:02.173Z,11.68
2023-03-21T20:23:51.109Z,14.68
2023-03-21T20:26:37.328Z,13.85
2023-03-21T20:32:33.296Z,13.38
2023-03-21T20:35:28.916Z,13.82
2023-03-21T20:38:27.057Z,12.90
2023-03-21T20:41:12.916Z,13.20
2023-03-21T20:47:07.808Z,16.23
2023-03-21T20:49:52.699Z,14.15
2023-03-21T20:53:05.627Z,13.70
2023-03-21T20:55:47.708Z,15.00
2023-03-21T20:58:59.389Z,12.23
2023-03-21T21:01:46.164Z,18.85
2023-03-21T21:04:52.498Z,16.33
2023-03-21T21:07:38.738Z,13.65
2023-03-21T21:10:26.865Z,14.65
2023-03-21T21:13:12.144Z,13.43
2023-03-21T21:15:58.672Z,12.65
2023-03-21T21:18:43.918Z,11.88
2023-03-21T21:21:30.967Z,11.13
2023-03-21T21:24:16.457Z,13.77
2023-03-21T21:27:01.408Z,12.93
2023-03-21T21:29:48.029Z,11.75
2023-03-21T21:32:33.697Z,12.30
2023-03-21T21:35:20.564Z,11.05
2023-03-21T21:38:05.574Z,11.45
2023-03-21T21:40:52.150Z,11.48
2023-03-21T21:43:37.042Z,13.60
2023-03-21T21:46:22.043Z,12.43
2023-03-21T21:49:07.002Z,11.52
2023-03-21T21:51:52.513Z,10.45
2023-03-21T21:54:39.510Z,11.20
2023-03-21T21:57:24.728Z,9.13
2023-03-21T22:00:13.408Z,11.60
2023-03-21T22:03:00.483Z,9.35
2023-03-21T22:05:47.967Z,9.32
2023-03-21T22:08:33.775Z,12.95
2023-03-21T22:11:19.238Z,10.02
2023-03-21T22:14:04.378Z,8.77
2023-03-21T22:16:49.308Z,8.55
2023-03-21T22:19:35.544Z,12.75
2023-03-21T22:22:20.673Z,9.27
2023-03-21T22:25:08.316Z,11.23
2023-03-21T22:27:53.336Z,9.68
2023-03-21T22:30:38.887Z,10.80
2023-03-21T22:33:25.645Z,9.23
2023-03-21T22:36:11.722Z,8.13
2023-03-21T22:38:57.004Z,10.52
2023-03-21T22:41:41.849Z,8.95
2023-03-21T22:44:34.310Z,8.50
2023-03-21T22:47:19.989Z,11.13
2023-03-21T22:50:06.473Z,9.65
2023-03-21T22:52:52.961Z,9.60
2023-03-21T22:55:38.846Z,9.73
2023-03-21T22:58:24.158Z,8.70
2023-03-21T23:01:09.050Z,8.30
2023-03-21T23:03:54.293Z,9.07
2023-03-21T23:06:39.436Z,10.18
2023-03-21T23:09:24.920Z,9.43
2023-03-21T23:12:10.454Z,8.18
2023-03-21T23:14:55.776Z,8.70
2023-03-21T23:17:41.024Z,9.88
2023-03-21T23:20:26.187Z,10.85
2023-03-21T23:23:11.314Z,9.73
2023-03-21T23:25:57.009Z,10.23
2023-03-21T23:28:42.398Z,8.05
2023-03-21T23:31:28.025Z,12.90
2023-03-21T23:34:13.518Z,10.27
2023-03-21T23:36:58.635Z,10.32
2023-03-21T23:39:45.197Z,10.73
2023-03-21T23:42:31.224Z,12.25
2023-03-21T23:45:16.164Z,9.77
2023-03-21T23:48:01.347Z,10.52
2023-03-21T23:50:46.096Z,11.38
2023-03-21T23:53:31.448Z,13.07
2023-03-21T23:56:21.842Z,11.68
2023-03-21T23:59:07.474Z,14.45
